createdAt,value
2018-08-24T00:01:15.689Z,7.50
2018-08-24T00:03:44.017Z,7.73
2018-08-24T00:06:12.345Z,7.67
2018-08-24T00:08:40.659Z,6.90
2018-08-24T00:11:08.992Z,6.37
2018-08-24T00:13:37.317Z,8.87
2018-08-24T00:16:05.684Z,9.10
2018-08-24T00:18:34.002Z,7.43
2018-08-24T00:21:02.329Z,7.60
2018-08-24T00:23:30.629Z,7.13
2018-08-24T00:25:58.973Z,6.23
2018-08-24T00:28:27.302Z,6.63
2018-08-24T00:30:55.760Z,7.03
2018-08-24T00:33:24.073Z,6.60
2018-08-24T00:35:52.437Z,6.90
2018-08-24T00:38:20.757Z,8.17
2018-08-24T00:40:53.316Z,10.20
2018-08-24T00:43:21.642Z,10.93
2018-08-24T00:45:49.997Z,10.83
2018-08-24T00:48:18.305Z,7.40
2018-08-24T00:50:46.641Z,6.20
2018-08-24T00:53:15.260Z,7.30
2018-08-24T00:55:43.607Z,8.00
2018-08-24T00:58:11.904Z,6.20
2018-08-24T01:00:43.571Z,6.03
2018-08-24T01:03:13.501Z,6.07
2018-08-24T01:05:41.829Z,6.87
2018-08-24T01:08:10.130Z,5.60
2018-08-24T01:10:38.490Z,8.53
2018-08-24T01:13:12.212Z,8.17
2018-08-24T01:15:46.797Z,5.37
2018-08-24T01:18:17.248Z,5.33
2018-08-24T01:20:51.095Z,7.23
2018-08-24T01:23:21.423Z,7.73
2018-08-24T01:25:49.961Z,7.47
2018-08-24T01:28:19.254Z,6.17
2018-08-24T01:30:47.702Z,7.47
2018-08-24T01:33:16.775Z,6.60
2018-08-24T01:35:45.504Z,5.17
2018-08-24T01:38:13.812Z,6.00
2018-08-24T01:40:42.134Z,7.33
2018-08-24T01:43:10.909Z,13.17
2018-08-24T01:45:39.252Z,12.63
2018-08-24T01:48:08.532Z,9.77
2018-08-24T01:50:37.196Z,12.63
2018-08-24T01:53:05.725Z,11.97
2018-08-24T01:55:34.078Z,10.77
2018-08-24T01:58:02.382Z,8.47
2018-08-24T02:00:30.719Z,7.57
2018-08-24T02:02:59.070Z,7.10
2018-08-24T02:05:27.387Z,7.30
2018-08-24T02:07:55.718Z,9.33
2018-08-24T02:10:30.469Z,7.80
2018-08-24T02:13:04.227Z,6.97
2018-08-24T02:15:32.610Z,8.23
2018-08-24T02:18:06.315Z,5.57
2018-08-24T02:20:40.208Z,5.83
2018-08-24T02:23:12.845Z,5.73
2018-08-24T02:25:41.284Z,5.37
2018-08-24T02:28:09.602Z,5.53
2018-08-24T02:30:37.955Z,4.90
2018-08-24T02:33:06.301Z,5.67
2018-08-24T02:35:34.606Z,5.50
2018-08-24T02:38:02.938Z,5.80
2018-08-24T02:40:31.656Z,8.50
2018-08-24T02:42:59.995Z,6.07
2018-08-24T02:45:28.345Z,6.30
2018-08-24T02:47:56.692Z,7.60
2018-08-24T02:50:25.011Z,7.40
2018-08-24T02:52:54.762Z,7.30
2018-08-24T02:55:23.751Z,9.30
2018-08-24T02:57:52.093Z,7.10
2018-08-24T03:00:20.433Z,6.73
2018-08-24T03:02:48.963Z,8.97
2018-08-24T03:05:17.400Z,8.27
2018-08-24T03:07:45.634Z,8.63
2018-08-24T03:10:13.933Z,6.97
2018-08-24T03:12:42.277Z,9.67
2018-08-24T03:15:10.590Z,8.57
2018-08-24T03:17:54.929Z,10.67
2018-08-24T03:20:24.355Z,9.00
2018-08-24T03:22:52.802Z,8.17
2018-08-24T03:25:21.546Z,8.20
2018-08-24T03:27:49.886Z,6.17
2018-08-24T03:30:18.200Z,7.07
2018-08-24T03:32:46.792Z,7.60
2018-08-24T03:35:15.111Z,5.60
2018-08-24T03:37:43.445Z,8.97
2018-08-24T03:40:11.749Z,8.50
2018-08-24T03:42:40.288Z,7.03
2018-08-24T03:45:08.654Z,6.57
2018-08-24T03:47:36.993Z,6.53
2018-08-24T03:50:05.487Z,6.40
2018-08-24T03:52:33.809Z,5.60
2018-08-24T03:55:02.119Z,5.50
2018-08-24T03:57:30.451Z,5.40
2018-08-24T03:59:58.756Z,5.17
2018-08-24T04:02:27.099Z,4.60
2018-08-24T04:04:55.440Z,5.20
2018-08-24T04:07:23.795Z,4.30
2018-08-24T04:09:52.128Z,4.43
2018-08-24T04:12:20.469Z,3.93
2018-08-24T04:14:48.792Z,4.23
2018-08-24T04:17:22.329Z,4.43
2018-08-24T04:19:50.669Z,4.57
2018-08-24T04:22:18.990Z,4.20
2018-08-24T04:24:47.314Z,5.00
2018-08-24T04:27:15.647Z,4.17
2018-08-24T04:29:43.954Z,4.37
2018-08-24T04:32:12.291Z,4.93
2018-08-24T04:34:40.607Z,5.33
2018-08-24T04:37:08.944Z,5.53
2018-08-24T04:39:37.265Z,4.73
2018-08-24T04:42:05.959Z,5.60
2018-08-24T04:44:34.818Z,5.33
2018-08-24T04:47:03.157Z,5.53
2018-08-24T04:49:31.462Z,4.20
2018-08-24T04:51:59.781Z,5.60
2018-08-24T04:54:28.093Z,3.83
2018-08-24T04:56:56.417Z,4.53
2018-08-24T04:59:24.762Z,4.90
2018-08-24T05:01:53.246Z,4.57
2018-08-24T05:04:21.617Z,3.57
2018-08-24T05:06:49.974Z,3.37
2018-08-24T05:09:18.307Z,3.70
2018-08-24T05:11:46.705Z,3.40
2018-08-24T05:14:15.116Z,3.40
2018-08-24T05:16:43.459Z,3.37
2018-08-24T05:19:11.791Z,3.97
2018-08-24T05:21:40.099Z,5.37
2018-08-24T05:24:08.459Z,3.47
2018-08-24T05:26:36.789Z,3.87
2018-08-24T05:29:05.180Z,4.20
2018-08-24T05:31:33.505Z,3.43
2018-08-24T05:34:01.832Z,4.67
2018-08-24T05:36:30.141Z,3.97
2018-08-24T05:38:58.472Z,4.20
2018-08-24T05:41:26.862Z,5.50
2018-08-24T05:43:55.161Z,4.80
2018-08-24T05:46:23.484Z,6.90
2018-08-24T05:48:51.903Z,4.87
2018-08-24T05:51:20.209Z,4.30
2018-08-24T05:53:48.564Z,5.20
2018-08-24T05:56:16.890Z,7.27
2018-08-24T05:58:45.230Z,7.27
2018-08-24T06:01:13.530Z,6.13
2018-08-24T06:03:41.878Z,5.87
2018-08-24T06:06:10.207Z,8.87
2018-08-24T06:08:38.561Z,6.77
2018-08-24T06:11:06.953Z,8.50
2018-08-24T06:13:35.274Z,8.10
2018-08-24T06:16:03.589Z,6.80
2018-08-24T06:18:31.917Z,6.30
2018-08-24T06:21:00.220Z,6.07
2018-08-24T06:23:28.551Z,6.77
2018-08-24T06:25:56.862Z,8.37
2018-08-24T06:28:25.193Z,8.10
2018-08-24T06:30:53.533Z,8.23
2018-08-24T06:33:23.597Z,9.43
2018-08-24T06:35:52.197Z,7.87
2018-08-24T06:38:20.639Z,7.93
2018-08-24T06:40:48.949Z,10.73
2018-08-24T06:43:17.298Z,8.53
2018-08-24T06:45:45.597Z,9.40
2018-08-24T06:48:13.962Z,7.60
2018-08-24T06:50:42.291Z,9.60
2018-08-24T06:53:10.711Z,9.70
2018-08-24T06:55:38.978Z,7.50
2018-08-24T06:58:07.306Z,9.93
2018-08-24T07:00:35.627Z,9.70
2018-08-24T07:03:04.009Z,10.03
2018-08-24T07:05:32.398Z,8.27
2018-08-24T07:08:00.744Z,6.27
2018-08-24T07:10:29.065Z,8.80
2018-08-24T07:12:57.441Z,8.63
2018-08-24T07:15:25.756Z,9.90
2018-08-24T07:18:02.154Z,11.50
2018-08-24T07:20:31.065Z,10.30
2018-08-24T07:22:59.402Z,9.33
2018-08-24T07:25:27.720Z,8.60
2018-08-24T07:27:56.025Z,8.93
2018-08-24T07:30:24.353Z,7.37
2018-08-24T07:32:52.656Z,6.97
2018-08-24T07:35:21.001Z,9.17
2018-08-24T07:37:49.312Z,7.60
2018-08-24T07:40:17.638Z,9.00
2018-08-24T07:42:46.082Z,8.00
2018-08-24T07:45:14.424Z,7.83
2018-08-24T07:47:42.736Z,6.70
2018-08-24T07:50:11.063Z,9.40
2018-08-24T07:52:39.376Z,7.90
2018-08-24T07:55:07.708Z,7.33
2018-08-24T07:57:36.012Z,7.90
2018-08-24T08:00:04.396Z,6.47
2018-08-24T08:02:38.201Z,6.00
2018-08-24T08:05:12.968Z,5.00
2018-08-24T08:07:41.311Z,5.47
2018-08-24T08:10:09.805Z,3.37
2018-08-24T08:12:38.175Z,3.60
2018-08-24T08:15:06.521Z,4.43
2018-08-24T08:17:35.301Z,3.23
2018-08-24T08:20:03.640Z,3.80
2018-08-24T08:22:31.960Z,4.83
2018-08-24T08:25:00.306Z,3.67
2018-08-24T08:27:28.637Z,4.80
2018-08-24T08:30:05.941Z,4.43
2018-08-24T08:32:34.273Z,4.50
2018-08-24T08:35:02.608Z,4.63
2018-08-24T08:37:30.936Z,4.37
2018-08-24T08:40:00.385Z,4.70
2018-08-24T08:42:28.983Z,4.40
2018-08-24T08:44:57.362Z,4.07
2018-08-24T08:47:25.686Z,3.27
2018-08-24T08:49:54.222Z,4.27
2018-08-24T08:52:22.549Z,4.00
2018-08-24T08:54:51.228Z,3.00
2018-08-24T08:57:19.705Z,4.13
2018-08-24T08:59:48.117Z,4.23
2018-08-24T09:02:16.445Z,3.97
2018-08-24T09:04:44.794Z,3.40
2018-08-24T09:07:13.139Z,3.33
2018-08-24T09:09:41.469Z,3.23
2018-08-24T09:12:10.225Z,3.23
2018-08-24T09:14:38.761Z,3.73
2018-08-24T09:17:12.418Z,3.80
2018-08-24T09:19:46.191Z,2.00
2018-08-24T09:22:19.881Z,3.57
2018-08-24T09:24:53.713Z,3.17
2018-08-24T09:27:27.332Z,2.50
2018-08-24T09:29:57.485Z,2.90
2018-08-24T09:32:25.837Z,2.30
2018-08-24T09:34:54.176Z,2.60
2018-08-24T09:37:28.005Z,1.60
2018-08-24T09:39:56.341Z,2.93
2018-08-24T09:42:24.681Z,4.83
2018-08-24T09:44:53.009Z,3.53
2018-08-24T09:47:26.738Z,6.43
2018-08-24T09:49:55.065Z,5.77
2018-08-24T09:52:27.527Z,6.43
2018-08-24T09:54:56.349Z,5.33
2018-08-24T09:57:24.733Z,6.13
2018-08-24T09:59:53.069Z,6.37
2018-08-24T10:02:23.801Z,6.53
2018-08-24T10:04:57.587Z,6.40
2018-08-24T10:07:30.141Z,7.57
2018-08-24T10:09:58.489Z,7.13
2018-08-24T10:12:26.830Z,7.10
2018-08-24T10:14:55.153Z,7.37
2018-08-24T10:17:25.809Z,7.33
2018-08-24T10:19:54.142Z,7.93
2018-08-24T10:22:22.457Z,7.00
2018-08-24T10:24:50.798Z,7.23
2018-08-24T10:27:19.109Z,7.80
2018-08-24T10:29:48.223Z,6.57
2018-08-24T10:32:16.510Z,6.90
2018-08-24T10:34:44.949Z,7.77
2018-08-24T10:37:13.393Z,7.30
2018-08-24T10:39:41.717Z,6.17
2018-08-24T10:42:10.033Z,6.00
2018-08-24T10:44:38.354Z,6.83
2018-08-24T10:47:06.708Z,7.57
2018-08-24T10:49:35.009Z,6.33
2018-08-24T10:52:03.445Z,5.67
2018-08-24T10:54:31.845Z,5.87
2018-08-24T10:57:00.180Z,6.97
2018-08-24T10:59:28.494Z,7.67
2018-08-24T11:01:56.868Z,5.23
2018-08-24T11:04:25.226Z,7.23
2018-08-24T11:06:53.555Z,6.70
2018-08-24T11:09:21.878Z,4.97
2018-08-24T11:11:50.317Z,7.63
2018-08-24T11:14:18.641Z,8.00
2018-08-24T11:16:46.983Z,6.87
2018-08-24T11:19:15.303Z,7.70
2018-08-24T11:21:43.627Z,6.60
2018-08-24T11:24:11.988Z,6.67
2018-08-24T11:26:40.332Z,7.00
2018-08-24T11:29:08.698Z,7.37
2018-08-24T11:31:37.000Z,6.23
2018-08-24T11:34:05.410Z,6.77
2018-08-24T11:36:34.010Z,6.17
2018-08-24T11:39:02.312Z,6.17
2018-08-24T11:41:30.654Z,7.43
2018-08-24T11:43:58.954Z,6.50
2018-08-24T11:46:27.296Z,5.60
2018-08-24T11:48:55.607Z,5.97
2018-08-24T11:51:23.933Z,5.53
2018-08-24T11:53:52.278Z,5.40
2018-08-24T11:56:20.609Z,6.43
2018-08-24T11:58:48.913Z,6.57
2018-08-24T12:01:17.236Z,7.07
2018-08-24T12:03:45.570Z,7.07
2018-08-24T12:06:13.905Z,6.00
2018-08-24T12:08:42.209Z,6.60
2018-08-24T12:11:10.532Z,8.40
2018-08-24T12:13:38.852Z,6.33
2018-08-24T12:16:07.192Z,7.83
2018-08-24T12:18:35.823Z,7.40
2018-08-24T12:21:04.188Z,7.23
2018-08-24T12:23:32.497Z,6.97
2018-08-24T12:26:00.830Z,6.67
2018-08-24T12:28:29.155Z,8.23
2018-08-24T12:30:58.336Z,6.93
2018-08-24T12:33:26.643Z,6.37
2018-08-24T12:35:54.988Z,7.10
2018-08-24T12:38:23.307Z,6.47
2018-08-24T12:40:51.674Z,8.53
2018-08-24T12:43:20.001Z,6.20
2018-08-24T12:45:48.333Z,8.13
2018-08-24T12:48:16.693Z,6.23
2018-08-24T12:50:45.093Z,8.03
2018-08-24T12:53:13.473Z,9.97
2018-08-24T12:55:41.798Z,7.90
2018-08-24T12:58:10.110Z,5.87
2018-08-24T13:00:38.438Z,7.97
2018-08-24T13:03:06.782Z,9.07
2018-08-24T13:05:35.100Z,9.33
2018-08-24T13:08:03.533Z,8.40
2018-08-24T13:10:31.837Z,9.13
2018-08-24T13:13:00.177Z,6.23
2018-08-24T13:15:28.505Z,5.83
2018-08-24T13:17:56.895Z,4.93
2018-08-24T13:20:25.212Z,5.00
2018-08-24T13:22:53.545Z,6.43
2018-08-24T13:25:21.865Z,3.93
2018-08-24T13:27:50.189Z,3.37
2018-08-24T13:30:18.495Z,3.17
2018-08-24T13:32:46.826Z,2.93
2018-08-24T13:35:15.151Z,3.70
2018-08-24T13:37:43.493Z,3.10
2018-08-24T13:40:11.821Z,4.30
2018-08-24T13:42:40.177Z,2.67
2018-08-24T13:45:08.557Z,2.90
2018-08-24T13:47:37.357Z,2.50
2018-08-24T13:50:05.443Z,3.10
2018-08-24T13:52:33.875Z,3.60
2018-08-24T13:55:02.320Z,3.27
2018-08-24T13:57:30.769Z,2.43
2018-08-24T13:59:59.201Z,2.17
2018-08-24T14:02:27.545Z,2.57
2018-08-24T14:04:55.877Z,2.80
2018-08-24T14:07:24.212Z,4.43
2018-08-24T14:09:52.544Z,2.60
2018-08-24T14:12:20.892Z,2.57
2018-08-24T14:14:49.233Z,2.90
2018-08-24T14:17:17.654Z,2.67
2018-08-24T14:19:45.993Z,3.20
2018-08-24T14:22:14.337Z,2.40
2018-08-24T14:24:42.656Z,3.17
2018-08-24T14:27:11.089Z,3.07
2018-08-24T14:29:39.448Z,3.00
2018-08-24T14:32:07.818Z,2.40
2018-08-24T14:34:36.234Z,2.60
2018-08-24T14:37:04.626Z,2.60
2018-08-24T14:39:32.952Z,2.60
2018-08-24T14:42:01.303Z,2.97
2018-08-24T14:44:29.613Z,3.13
2018-08-24T14:46:57.957Z,3.43
2018-08-24T14:49:26.276Z,3.17
2018-08-24T14:51:54.608Z,3.83
2018-08-24T14:54:23.038Z,3.07
2018-08-24T14:56:51.413Z,3.30
2018-08-24T14:59:19.746Z,4.00
2018-08-24T15:01:48.089Z,3.70
2018-08-24T15:04:16.420Z,3.03
2018-08-24T15:06:44.767Z,2.97
2018-08-24T15:09:13.099Z,2.60
2018-08-24T15:11:41.422Z,3.10
2018-08-24T15:14:10.185Z,3.10
2018-08-24T15:16:38.782Z,2.90
2018-08-24T15:19:07.136Z,2.40
2018-08-24T15:21:35.487Z,2.67
2018-08-24T15:24:03.864Z,5.13
2018-08-24T15:26:32.192Z,3.63
2018-08-24T15:29:00.540Z,2.97
2018-08-24T15:31:28.946Z,3.90
2018-08-24T15:33:57.289Z,5.00
2018-08-24T15:36:25.607Z,3.67
2018-08-24T15:38:53.950Z,3.97
2018-08-24T15:41:22.272Z,4.47
2018-08-24T15:43:50.597Z,3.23
2018-08-24T15:46:18.966Z,4.33
2018-08-24T15:48:47.270Z,3.10
2018-08-24T15:51:15.613Z,5.07
2018-08-24T15:53:43.941Z,5.70
2018-08-24T15:56:12.265Z,3.20
2018-08-24T15:58:40.608Z,4.23
2018-08-24T16:01:09.087Z,3.37
2018-08-24T16:03:37.585Z,3.00
2018-08-24T16:06:06.542Z,3.57
2018-08-24T16:08:35.229Z,2.50
2018-08-24T16:11:03.577Z,2.17
2018-08-24T16:13:32.021Z,3.47
2018-08-24T16:16:00.432Z,3.03
2018-08-24T16:18:28.771Z,3.30
2018-08-24T16:20:57.105Z,4.40
2018-08-24T16:23:25.449Z,2.63
2018-08-24T16:25:53.859Z,2.33
2018-08-24T16:28:22.215Z,2.57
2018-08-24T16:30:50.544Z,2.33
2018-08-24T16:33:19.188Z,2.50
2018-08-24T16:35:47.543Z,1.87
2018-08-24T16:38:16.413Z,2.13
2018-08-24T16:40:44.805Z,4.47
2018-08-24T16:43:13.540Z,2.97
2018-08-24T16:45:41.917Z,2.27
2018-08-24T16:48:10.276Z,2.17
2018-08-24T16:50:38.700Z,2.63
2018-08-24T16:53:07.104Z,2.17
2018-08-24T16:55:35.524Z,2.07
2018-08-24T16:58:03.894Z,1.97
2018-08-24T17:00:32.289Z,2.53
2018-08-24T17:03:00.660Z,2.00
2018-08-24T17:05:29.005Z,1.50
2018-08-24T17:07:57.350Z,2.80
2018-08-24T17:10:25.750Z,2.87
2018-08-24T17:12:54.196Z,3.30
2018-08-24T17:15:22.469Z,2.20
2018-08-24T17:17:50.799Z,1.87
2018-08-24T17:20:19.121Z,1.77
2018-08-24T17:22:47.477Z,1.93
2018-08-24T17:25:15.805Z,1.57
2018-08-24T17:27:44.126Z,1.53
2018-08-24T17:30:12.456Z,1.20
2018-08-24T17:32:40.785Z,1.93
2018-08-24T17:35:09.159Z,2.23
2018-08-24T17:37:37.701Z,1.20
2018-08-24T17:40:06.115Z,1.23
2018-08-24T17:42:34.514Z,2.17
2018-08-24T17:45:03.370Z,2.93
2018-08-24T17:47:32.432Z,1.83
2018-08-24T17:50:01.593Z,2.03
2018-08-24T17:52:29.940Z,1.60
2018-08-24T17:54:58.289Z,1.57
2018-08-24T17:57:26.602Z,1.63
2018-08-24T17:59:54.945Z,1.27
2018-08-24T18:02:23.294Z,3.10
2018-08-24T18:04:51.628Z,1.10
2018-08-24T18:07:19.985Z,1.10
2018-08-24T18:09:48.328Z,0.93
2018-08-24T18:12:16.640Z,1.30
2018-08-24T18:14:45.067Z,1.10
2018-08-24T18:17:13.354Z,1.23
2018-08-24T18:19:41.730Z,3.30
2018-08-24T18:22:10.050Z,1.70
2018-08-24T18:24:38.486Z,2.97
2018-08-24T18:27:06.812Z,2.63
2018-08-24T18:29:35.155Z,2.03
2018-08-24T18:32:03.469Z,1.90
2018-08-24T18:34:31.829Z,2.03
2018-08-24T18:37:00.149Z,1.70
2018-08-24T18:39:28.572Z,1.73
2018-08-24T18:41:56.905Z,1.93
2018-08-24T18:44:25.225Z,3.20
2018-08-24T18:46:53.633Z,2.33
2018-08-24T18:49:21.975Z,2.00
2018-08-24T18:51:50.290Z,2.83
2018-08-24T18:54:18.614Z,2.17
2018-08-24T18:56:46.957Z,2.97
2018-08-24T18:59:15.297Z,1.47
2018-08-24T19:01:43.616Z,1.70
2018-08-24T19:04:11.977Z,2.23
2018-08-24T19:06:40.335Z,2.63
2018-08-24T19:09:09.789Z,1.37
2018-08-24T19:11:43.518Z,1.63
2018-08-24T19:14:11.885Z,2.70
2018-08-24T19:16:40.226Z,1.33
2018-08-24T19:19:14.093Z,1.37
2018-08-24T19:21:44.080Z,1.43
2018-08-24T19:24:12.705Z,1.90
2018-08-24T19:26:41.106Z,1.93
2018-08-24T19:29:14.980Z,1.50
2018-08-24T19:31:43.345Z,1.87
2018-08-24T19:34:12.062Z,1.83
2018-08-24T19:36:40.392Z,2.47
2018-08-24T19:39:10.713Z,1.57
2018-08-24T19:41:44.368Z,2.07
2018-08-24T19:44:12.719Z,1.67
2018-08-24T19:46:41.083Z,1.10
2018-08-24T19:49:15.915Z,1.60
2018-08-24T19:51:44.397Z,1.53
2018-08-24T19:54:13.635Z,1.37
2018-08-24T19:56:42.117Z,1.70
2018-08-24T19:59:11.721Z,1.90
2018-08-24T20:01:40.033Z,2.50
2018-08-24T20:04:08.785Z,3.80
2018-08-24T20:06:43.454Z,2.03
2018-08-24T20:09:17.709Z,1.77
2018-08-24T20:11:51.683Z,1.97
2018-08-24T20:14:25.452Z,1.90
2018-08-24T20:16:59.086Z,2.77
2018-08-24T20:19:28.253Z,1.40
2018-08-24T20:21:56.596Z,1.30
2018-08-24T20:24:25.184Z,1.97
2018-08-24T20:26:53.293Z,2.17
2018-08-24T20:29:21.642Z,1.63
2018-08-24T20:31:50.134Z,1.33
2018-08-24T20:34:18.564Z,1.70
2018-08-24T20:36:46.896Z,4.33
2018-08-24T20:39:15.221Z,2.10
2018-08-24T20:41:43.545Z,2.13
2018-08-24T20:44:11.846Z,1.20
2018-08-24T20:46:40.364Z,1.43
2018-08-24T20:49:08.699Z,1.67
2018-08-24T20:51:37.061Z,1.83
2018-08-24T20:54:05.414Z,1.50
2018-08-24T20:56:33.756Z,1.30
2018-08-24T20:59:02.077Z,1.37
2018-08-24T21:01:30.510Z,1.33
2018-08-24T21:03:58.962Z,1.43
2018-08-24T21:06:28.424Z,1.40
2018-08-24T21:08:56.744Z,1.63
2018-08-24T21:11:25.078Z,3.03
2018-08-24T21:13:53.422Z,1.70
2018-08-24T21:16:21.773Z,1.20
2018-08-24T21:18:50.216Z,1.13
2018-08-24T21:21:18.568Z,1.50
2018-08-24T21:23:46.897Z,1.13
2018-08-24T21:26:15.245Z,1.77
2018-08-24T21:28:43.540Z,1.57
2018-08-24T21:31:11.913Z,1.43
2018-08-24T21:33:40.336Z,1.30
2018-08-24T21:36:08.730Z,1.33
2018-08-24T21:38:37.045Z,1.77
2018-08-24T21:41:05.386Z,1.40
2018-08-24T21:43:33.713Z,1.30
2018-08-24T21:46:02.096Z,1.00
2018-08-24T21:48:30.509Z,1.40
2018-08-24T21:50:58.892Z,1.73
2018-08-24T21:53:27.209Z,1.20
2018-08-24T21:55:55.547Z,3.43
2018-08-24T21:58:23.867Z,1.23
2018-08-24T22:00:52.197Z,1.67
2018-08-24T22:03:20.581Z,2.33
2018-08-24T22:05:48.989Z,1.20
2018-08-24T22:08:17.296Z,1.30
2018-08-24T22:10:45.627Z,1.37
2018-08-24T22:13:13.944Z,1.93
2018-08-24T22:15:42.281Z,2.67
2018-08-24T22:18:10.606Z,1.00
2018-08-24T22:20:38.933Z,1.97
2018-08-24T22:23:07.253Z,1.20
2018-08-24T22:25:35.593Z,2.33
2018-08-24T22:28:03.903Z,1.10
2018-08-24T22:30:32.225Z,1.60
2018-08-24T22:33:00.541Z,2.87
2018-08-24T22:35:28.899Z,1.77
2018-08-24T22:37:57.217Z,1.17
2018-08-24T22:40:25.556Z,1.57
2018-08-24T22:42:53.869Z,1.57
2018-08-24T22:45:23.638Z,1.30
2018-08-24T22:47:52.764Z,2.03
2018-08-24T22:50:21.176Z,1.00
2018-08-24T22:52:49.501Z,3.13
2018-08-24T22:55:17.805Z,1.07
2018-08-24T22:57:46.140Z,1.63
2018-08-24T23:00:14.462Z,0.93
2018-08-24T23:02:42.800Z,0.90
2018-08-24T23:05:11.097Z,1.57
2018-08-24T23:07:39.459Z,1.00
2018-08-24T23:10:07.789Z,0.67
2018-08-24T23:12:36.154Z,0.67
2018-08-24T23:15:04.490Z,1.40
2018-08-24T23:17:32.808Z,1.33
2018-08-24T23:20:01.125Z,0.80
2018-08-24T23:22:29.464Z,1.83
2018-08-24T23:24:57.787Z,1.63
2018-08-24T23:27:26.105Z,1.23
2018-08-24T23:29:54.451Z,0.87
2018-08-24T23:32:22.825Z,1.23
2018-08-24T23:34:51.134Z,0.70
2018-08-24T23:37:19.476Z,2.30
2018-08-24T23:39:47.795Z,0.70
2018-08-24T23:42:16.160Z,0.90
2018-08-24T23:44:44.469Z,1.10
2018-08-24T23:47:12.793Z,0.70
2018-08-24T23:49:41.109Z,2.63
2018-08-24T23:52:09.456Z,0.80
2018-08-24T23:54:37.773Z,1.03
2018-08-24T23:57:06.128Z,1.30
2018-08-24T23:59:34.466Z,1.00
